createdAt,value
2022-10-05T00:08:36.484Z,86.23
2022-10-05T00:18:59.523Z,86.58
2022-10-05T00:29:22.953Z,87.71
2022-10-05T00:39:45.062Z,87.89
2022-10-05T00:50:25.404Z,88.11
2022-10-05T01:01:05.126Z,88.65
2022-10-05T01:12:05.790Z,89.06
2022-10-05T01:22:48.575Z,89.38
2022-10-05T01:33:09.970Z,89.63
2022-10-05T01:43:44.694Z,91.44
2022-10-05T01:54:40.419Z,91.65
2022-10-05T02:05:11.139Z,92.05
2022-10-05T02:15:42.942Z,92.28
2022-10-05T02:26:05.854Z,93.25
2022-10-05T02:36:35.449Z,93.06
2022-10-05T02:47:10.548Z,93.46
2022-10-05T02:57:38.974Z,93.06
2022-10-05T03:08:28.879Z,93.52
2022-10-05T03:19:10.285Z,93.39
2022-10-05T03:29:40.267Z,94.33
2022-10-05T03:40:06.758Z,94.18
2022-10-05T03:50:46.866Z,94.19
2022-10-05T04:01:18.555Z,95.43
2022-10-05T04:11:46.236Z,95.37
2022-10-05T04:22:25.400Z,95.85
2022-10-05T04:32:55.725Z,96.89
2022-10-05T04:43:55.551Z,97.65
2022-10-05T04:54:27.820Z,98.15
2022-10-05T05:05:08.610Z,98.14
2022-10-05T05:15:46.572Z,99.44
2022-10-05T05:26:20.128Z,100.00
2022-10-05T05:37:25.227Z,100.00
2022-10-05T05:47:53.918Z,100.00
2022-10-05T05:58:25.203Z,100.00
2022-10-05T06:08:51.034Z,100.00
2022-10-05T06:19:16.578Z,100.00
2022-10-05T06:30:16.955Z,100.00
2022-10-05T06:41:02.528Z,100.00
2022-10-05T06:51:50.358Z,100.00
2022-10-05T07:02:23.924Z,100.00
2022-10-05T07:12:54.454Z,100.00
2022-10-05T07:23:52.843Z,99.53
2022-10-05T07:34:41.282Z,99.12
2022-10-05T07:45:25.965Z,98.40
2022-10-05T07:55:52.417Z,96.58
2022-10-05T08:06:30.405Z,95.75
2022-10-05T08:16:57.691Z,94.03
2022-10-05T08:27:28.119Z,94.69
2022-10-05T08:37:51.111Z,94.30
2022-10-05T08:48:42.297Z,94.14
2022-10-05T08:59:22.055Z,94.35
2022-10-05T09:10:21.430Z,94.06
2022-10-05T09:20:53.588Z,93.09
2022-10-05T09:31:44.896Z,92.51
2022-10-05T09:42:17.877Z,90.36
2022-10-05T09:52:39.341Z,89.53
2022-10-05T10:03:16.143Z,88.17
2022-10-05T10:14:18.320Z,86.61
2022-10-05T10:25:04.546Z,86.49
2022-10-05T10:35:37.841Z,86.88
2022-10-05T10:45:59.300Z,84.19
2022-10-05T10:56:26.989Z,84.15
2022-10-05T11:07:09.830Z,83.98
2022-10-05T11:17:40.262Z,84.50
2022-10-05T11:28:35.761Z,82.63
2022-10-05T11:39:18.975Z,82.45
2022-10-05T11:49:47.485Z,80.49
2022-10-05T12:00:23.710Z,80.37
2022-10-05T12:11:25.643Z,80.82
2022-10-05T12:21:53.792Z,80.92
2022-10-05T12:32:33.638Z,80.36
2022-10-05T12:43:15.939Z,80.57
2022-10-05T12:53:40.401Z,80.65
2022-10-05T13:04:10.190Z,80.69
2022-10-05T13:14:40.800Z,80.22
2022-10-05T13:25:29.573Z,80.07
2022-10-05T13:36:18.687Z,80.26
2022-10-05T13:47:03.865Z,79.45
2022-10-05T13:57:46.719Z,79.96
2022-10-05T14:08:08.543Z,80.71
2022-10-05T14:18:32.844Z,79.17
2022-10-05T14:29:17.081Z,78.86
2022-10-05T14:39:42.453Z,77.75
2022-10-05T14:50:17.766Z,78.58
2022-10-05T15:01:17.709Z,78.79
2022-10-05T15:11:49.295Z,79.82
2022-10-05T15:22:14.136Z,80.11
2022-10-05T15:33:04.341Z,79.70
2022-10-05T15:43:35.142Z,79.83
2022-10-05T15:54:24.923Z,80.67
2022-10-05T16:05:20.041Z,80.57
2022-10-05T16:15:50.559Z,81.59
2022-10-05T16:26:18.487Z,81.33
2022-10-05T16:36:53.375Z,83.19
2022-10-05T16:47:39.735Z,84.96
2022-10-05T16:58:11.586Z,84.46
2022-10-05T17:09:10.359Z,83.77
2022-10-05T17:19:47.742Z,82.86
2022-10-05T17:30:28.418Z,83.81
2022-10-05T17:41:08.635Z,84.51
2022-10-05T17:51:48.863Z,85.64
2022-10-05T18:02:19.511Z,85.21
2022-10-05T18:12:59.454Z,84.93
2022-10-05T18:23:23.799Z,85.30
2022-10-05T18:33:53.415Z,84.06
2022-10-05T18:44:26.315Z,83.63
2022-10-05T18:55:13.340Z,80.97
2022-10-05T19:05:50.056Z,78.81
2022-10-05T19:16:20.228Z,78.24
2022-10-05T19:27:06.743Z,77.68
2022-10-05T19:37:46.241Z,77.80
2022-10-05T19:48:28.666Z,78.42
2022-10-05T19:58:55.918Z,78.81
2022-10-05T20:09:21.511Z,78.97
2022-10-05T20:20:01.534Z,79.42
2022-10-05T20:30:27.403Z,79.29
2022-10-05T20:40:48.886Z,79.53
2022-10-05T20:51:10.334Z,80.58
2022-10-05T21:01:32.035Z,80.99
2022-10-05T21:11:54.496Z,81.20
2022-10-05T21:22:15.984Z,81.17
2022-10-05T21:32:41.799Z,87.87
2022-10-05T21:43:05.588Z,100.00
2022-10-05T21:53:30.938Z,100.00
2022-10-05T22:03:52.463Z,100.00
2022-10-05T22:14:17.096Z,100.00
2022-10-05T22:24:38.625Z,100.00
2022-10-05T22:35:00.048Z,100.00
2022-10-05T22:45:21.524Z,100.00
2022-10-05T22:55:42.934Z,99.32
2022-10-05T23:06:10.104Z,89.07
2022-10-05T23:16:31.723Z,88.07
2022-10-05T23:26:53.204Z,96.98
2022-10-05T23:37:14.719Z,100.00
2022-10-05T23:47:36.174Z,100.00
2022-10-05T23:57:57.615Z,100.00
